M I D A S
Marine Information and Data Acquisition System
Tripno 1478 of the Zeeleeuw from 2008-02-07 07:33:22 to 2008-02-07 17:20:09
Back to CruiseResearch ActivitiesStationsMapUnderway DataData graphs

EquipmentUnitsComment
TimeDGPSUTC
LatitudeDGPSDM.mWGS84
LongitudeDGPSDM.mWGS84
HeadingGyrodeg 
SOGDGPSknotsSpeed over ground
COGDGPSdegCourse over ground
DepthEcho soundermeters200 kHz
Missing or incorrect values are displayed as -999
Navigation data collected by the RV Zeeleeuw from 2008-02-07 07:30:23 to 2008-02-07 17:30:04
Time Latitude Longitude Heading SOG COG Depth
2008-02-07 07:31:28 51°13.672 2°55.911 108.7 0.3 255 -999
2008-02-07 07:32:28 51°13.679 2°55.873 113.5 2.5 290 -999
2008-02-07 07:33:28 51°13.711 2°55.787 127.9 4.6 305 -999
2008-02-07 07:34:29 51°13.764 2°55.694 145.8 4.8 321 -999
2008-02-07 07:35:28 51°13.841 2°55.637 175.8 5.2 349 -999
2008-02-07 07:36:28 51°13.916 2°55.652 212.9 3.7 23 -999
2008-02-07 07:37:28 51°13.939 2°55.65 265.3 2.8 277 9.2
2008-02-07 07:38:28 51°13.98 2°55.571 323.5 5.7 321 9.2
2008-02-07 07:39:27 51°14.073 2°55.469 331.2 7.7 328 -999
2008-02-07 07:40:28 51°14.188 2°55.353 329.2 8.4 325 9.1
2008-02-07 07:41:27 51°14.298 2°55.187 313.6 9.8 309 8.7
2008-02-07 07:42:26 51°14.399 2°54.968 308.7 11 305 8.8
2008-02-07 07:43:25 51°14.514 2°54.721 310.6 12.5 304 9
2008-02-07 07:44:25 51°14.627 2°54.436 307.9 12.9 302 8.6
2008-02-07 07:45:25 51°14.739 2°54.146 307.7 12.8 302 8.4
2008-02-07 07:46:24 51°14.845 2°53.863 307.1 12.6 301 8
2008-02-07 07:47:25 51°14.954 2°53.57 307.8 12.7 302 7.8
2008-02-07 07:48:25 51°15.063 2°53.279 307.2 12.8 301 8.4
2008-02-07 07:49:24 51°15.17 2°52.991 307.7 12.8 301 8.8
2008-02-07 07:50:25 51°15.283 2°52.695 308.8 12.9 302 9.3
2008-02-07 07:51:26 51°15.391 2°52.391 300.1 13.1 292 9.8
2008-02-07 07:52:25 51°15.451 2°52.058 290.5 13.4 284 10.5
2008-02-07 07:53:25 51°15.483 2°51.706 277.2 13.6 271 10.8
2008-02-07 07:54:25 51°15.471 2°51.346 269.2 13.7 265 11
2008-02-07 07:55:25 51°15.45 2°50.986 270.7 13.7 267 11.2
2008-02-07 07:56:25 51°15.435 2°50.624 268.9 13.8 265 11.4
2008-02-07 07:57:25 51°15.42 2°50.262 271.4 13.6 267 11.4
2008-02-07 07:58:25 51°15.402 2°49.901 269.7 13.6 266 11.4
2008-02-07 07:59:26 51°15.387 2°49.536 270.2 13.5 267 11.6
2008-02-07 08:00:25 51°15.371 2°49.184 269.4 13.5 266 11.7
2008-02-07 08:01:26 51°15.359 2°48.821 270 13.5 265 11.6
2008-02-07 08:02:25 51°15.344 2°48.472 269.2 13.3 265 9.9
2008-02-07 08:03:25 51°15.328 2°48.124 268.8 13.1 265 8.7
2008-02-07 08:04:25 51°15.311 2°47.778 270 13.1 266 8.4
2008-02-07 08:05:26 51°15.295 2°47.424 269.3 13.2 266 8.8
2008-02-07 08:06:25 51°15.282 2°47.078 270.1 13.4 267 9.7
2008-02-07 08:07:25 51°15.269 2°46.723 271.6 13.5 268 10.8
2008-02-07 08:08:26 51°15.258 2°46.359 271.5 13.6 268 12.2
2008-02-07 08:09:26 51°15.248 2°45.998 271.4 13.6 267 13.4
2008-02-07 08:10:26 51°15.235 2°45.637 270.3 13.6 267 14.4
2008-02-07 08:11:25 51°15.222 2°45.282 270.7 13.6 267 15.6
2008-02-07 08:12:26 51°15.209 2°44.914 271.1 13.7 266 16.6
2008-02-07 08:13:25 51°15.196 2°44.557 270.7 13.7 266 17.2
2008-02-07 08:14:25 51°15.18 2°44.194 270 13.7 266 16.3
2008-02-07 08:15:25 51°15.164 2°43.836 270.1 13.5 265 14.3
2008-02-07 08:16:25 51°15.147 2°43.48 270.4 13.4 266 12.4
2008-02-07 08:17:25 51°15.169 2°43.132 288.8 13.3 284 12.2
2008-02-07 08:18:25 51°15.219 2°42.792 289.4 13 283 12.4
2008-02-07 08:19:26 51°15.267 2°42.445 289 13.2 283 11.7
2008-02-07 08:20:25 51°15.31 2°42.113 287.9 13.1 283 9.7
2008-02-07 08:21:26 51°15.369 2°41.778 300.7 12.8 296 9.6
2008-02-07 08:22:25 51°15.476 2°41.493 305.9 12.7 300 9.5
2008-02-07 08:23:25 51°15.597 2°41.218 312.1 12.8 305 10.2
2008-02-07 08:24:26 51°15.717 2°40.933 310.8 12.8 304 11.9
2008-02-07 08:25:26 51°15.838 2°40.656 310.2 12.9 303 15.6
2008-02-07 08:26:25 51°15.954 2°40.377 310.4 12.8 303 18.1
2008-02-07 08:27:25 51°16.069 2°40.088 309.9 12.9 302 19.5
2008-02-07 08:28:26 51°16.187 2°39.794 310.7 12.9 304 19.2
2008-02-07 08:29:25 51°16.309 2°39.521 313.4 12.8 306 18
2008-02-07 08:30:25 51°16.436 2°39.245 313.5 12.9 306 14
2008-02-07 08:31:25 51°16.562 2°38.97 311.2 12.8 304 10.1
2008-02-07 08:32:26 51°16.685 2°38.684 310.7 12.8 305 8
2008-02-07 08:33:25 51°16.803 2°38.408 308.8 13 304 10.2
2008-02-07 08:34:25 51°16.935 2°38.119 312.8 13.2 306 23.6
2008-02-07 08:35:26 51°17.062 2°37.828 311.6 13.1 305 25.6
2008-02-07 08:36:25 51°17.184 2°37.546 311.3 13.2 304 26
2008-02-07 08:37:26 51°17.31 2°37.256 312.5 13.1 304 25.9
2008-02-07 08:38:26 51°17.43 2°36.969 310.9 13 304 25.8
2008-02-07 08:39:25 51°17.55 2°36.686 311.8 13.1 305 21.8
2008-02-07 08:40:26 51°17.674 2°36.398 311.5 12.9 304 16.8
2008-02-07 08:41:25 51°17.794 2°36.121 311.3 13 304 12.4
2008-02-07 08:42:26 51°17.92 2°35.839 311.6 12.1 306 13
2008-02-07 08:43:26 51°18.066 2°35.692 345.1 10 337 18.5
2008-02-07 08:44:25 51°18.217 2°35.639 9.1 9.2 3 21.3
2008-02-07 08:45:25 51°18.342 2°35.751 47.2 8.8 46 22.8
2008-02-07 08:46:26 51°18.456 2°35.904 48.7 8.8 48 24.1
2008-02-07 08:47:25 51°18.551 2°36.072 50.6 8.2 50 21.2
2008-02-07 08:48:25 51°18.62 2°36.179 41.6 4.3 34 21.1
2008-02-07 08:49:26 51°18.663 2°36.235 57.3 2.4 54 15.8
2008-02-07 08:50:25 51°18.675 2°36.274 63.6 1.1 64 22.2
2008-02-07 08:51:25 51°18.675 2°36.279 76 0.5 262 22.7
2008-02-07 08:52:26 51°18.688 2°36.302 38.1 1.7 24 21.9
2008-02-07 08:53:25 51°18.698 2°36.298 22.5 0.5 321 22.1
2008-02-07 08:54:25 51°18.706 2°36.286 16 0.7 319 21.6
2008-02-07 08:55:26 51°18.713 2°36.271 10.8 0.7 308 21.8
2008-02-07 08:56:26 51°18.723 2°36.251 3.7 1 304 21
2008-02-07 08:57:23 51°13.643 2°55.871 126.5 -999 -999 -999
2008-02-07 08:57:46 51°18.734 2°36.215 351.2 1.3 292 17.3
2008-02-07 08:58:45 51°18.741 2°36.183 342.3 1.3 288 18
2008-02-07 08:59:45 51°18.745 2°36.149 327 1.2 281 20.6
2008-02-07 09:00:46 51°18.747 2°36.115 311.6 1.2 272 22.1
2008-02-07 09:01:46 51°18.745 2°36.087 301.9 0.9 264 23.2
2008-02-07 09:02:46 51°18.742 2°36.062 295 1 257 23.3
2008-02-07 09:03:46 51°18.739 2°36.038 291 0.9 268 19.9
2008-02-07 09:04:46 51°18.742 2°35.993 304.8 3.5 290 20.3
2008-02-07 09:05:45 51°18.79 2°35.959 28.7 3.2 23 20.2
2008-02-07 09:06:45 51°18.857 2°36.051 35.5 7.5 28 22.3
2008-02-07 09:07:45 51°19.004 2°36.062 358.1 11.1 348 22.1
2008-02-07 09:08:45 51°19.196 2°35.993 356.2 12 349 21.4
2008-02-07 09:09:45 51°19.393 2°35.934 357.2 11.9 350 21.4
2008-02-07 09:10:45 51°19.587 2°35.882 358.8 11.9 352 19.5
2008-02-07 09:11:45 51°19.782 2°35.827 354.8 12.1 347 20.1
2008-02-07 09:12:45 51°19.978 2°35.758 354.7 12.1 348 18.8
2008-02-07 09:13:45 51°20.173 2°35.691 355 12.1 347 17
2008-02-07 09:14:45 51°20.365 2°35.606 344.5 12.3 337 18.5
2008-02-07 09:15:45 51°20.543 2°35.442 335.3 12.4 327 26.9
2008-02-07 09:16:45 51°20.705 2°35.226 325.2 12.9 316 30
2008-02-07 09:17:45 51°20.862 2°35 326.2 12.7 317 32.4
2008-02-07 09:18:44 51°20.995 2°34.737 313.9 13 308 31
2008-02-07 09:19:45 51°21.109 2°34.437 300.6 13.2 292 31.1
2008-02-07 09:20:45 51°21.175 2°34.099 288.1 13.4 279 30.4
2008-02-07 09:21:44 51°21.22 2°33.758 291.2 13.3 286 32.6
2008-02-07 09:22:45 51°21.28 2°33.417 292.5 13.1 286 30.5
2008-02-07 09:23:45 51°21.347 2°33.088 298.3 12.9 293 27.3
2008-02-07 09:24:44 51°21.445 2°32.795 311.3 12.5 303 22.9
2008-02-07 09:25:45 51°21.592 2°32.567 335.9 11.7 334 20.8
2008-02-07 09:26:45 51°21.783 2°32.526 9.4 11.7 4 25.5
2008-02-07 09:27:44 51°21.974 2°32.548 10.3 11.8 3 29.4
2008-02-07 09:28:45 51°22.171 2°32.554 7.9 11.8 -999 30.2
2008-02-07 09:29:45 51°22.368 2°32.554 7.9 11.9 1 31.7
2008-02-07 09:30:45 51°22.564 2°32.552 7.9 11.7 358 31.3
2008-02-07 09:31:45 51°22.761 2°32.547 7.4 11.9 -999 30.6
2008-02-07 09:32:45 51°22.957 2°32.543 7.5 11.7 358 30.8
2008-02-07 09:33:45 51°23.153 2°32.538 8.7 11.8 359 31
2008-02-07 09:34:45 51°23.348 2°32.534 6.5 11.7 1 30.1
2008-02-07 09:35:45 51°23.545 2°32.539 12.3 12 2 28.5
2008-02-07 09:36:45 51°23.738 2°32.57 12.7 11.6 4 26.7
2008-02-07 09:37:45 51°23.933 2°32.599 11.5 11.7 4 27
2008-02-07 09:38:45 51°24.127 2°32.634 13.4 11.6 9 24.9
2008-02-07 09:39:45 51°24.323 2°32.664 13.2 11.9 7 17.6
2008-02-07 09:40:45 51°24.514 2°32.714 15.8 11.6 6 18.4
2008-02-07 09:41:46 51°24.71 2°32.765 15.8 11.8 10 17
2008-02-07 09:42:45 51°24.9 2°32.818 18 11.7 11 16.4
2008-02-07 09:43:45 51°25.093 2°32.876 16.6 12 11 21.6
2008-02-07 09:44:45 51°25.287 2°32.94 16.6 11.8 15 24.4
2008-02-07 09:45:45 51°25.482 2°32.997 16.6 12 9 26.5
2008-02-07 09:46:45 51°25.674 2°33.065 15.1 11.7 18 29.5
2008-02-07 09:47:45 51°25.847 2°33.191 15.1 11.7 14 31.6
2008-02-07 09:48:44 51°26.027 2°33.287 15.1 11.6 17 31.1
2008-02-07 09:49:45 51°26.212 2°33.4 15.1 11.8 20 33.2
2008-02-07 09:50:46 51°26.404 2°33.476 15.1 11.9 11 33.1
2008-02-07 09:51:45 51°26.597 2°33.5 15.1 12 352 32.7
2008-02-07 09:52:45 51°26.782 2°33.579 15.1 11.6 34 33.6
2008-02-07 09:53:45 51°26.909 2°33.808 15.1 11.3 46 33.4
2008-02-07 09:54:45 51°27.066 2°33.991 15.1 11.6 32 33.1
2008-02-07 09:55:45 51°27.236 2°34.139 15.1 11.9 28 33.4
2008-02-07 09:56:45 51°27.416 2°34.257 15.1 11.6 21 33.6
2008-02-07 09:57:45 51°27.597 2°34.372 15.1 12 23 33
2008-02-07 09:58:45 51°27.782 2°34.477 15.1 11.6 21 34
2008-02-07 09:59:45 51°27.968 2°34.577 15.1 11.9 20 35.5
2008-02-07 10:00:45 51°28.158 2°34.647 15.1 11.8 12 35.5
2008-02-07 10:01:45 51°28.354 2°34.68 15.1 12 4 35.6
2008-02-07 10:02:45 51°28.552 2°34.71 15.1 11.6 10 36.7
2008-02-07 10:03:45 51°28.745 2°34.757 15.1 11.9 6 37.2
2008-02-07 10:04:45 51°28.941 2°34.798 15.1 12 11 38.1
2008-02-07 10:05:45 51°29.133 2°34.86 15.1 12 12 39.2
2008-02-07 10:06:45 51°29.327 2°34.909 15.1 11.8 7 38.5
2008-02-07 10:07:45 51°29.522 2°34.941 15.1 12 9 39.6
2008-02-07 10:08:45 51°29.715 2°34.98 15.1 11.5 5 38.3
2008-02-07 10:09:44 51°29.905 2°34.991 15.1 11.6 5 39.4
2008-02-07 10:10:44 51°30.095 2°34.989 15.1 11.3 -999 39.3
2008-02-07 10:11:45 51°30.291 2°35.013 15.1 11.8 7 38
2008-02-07 10:12:45 51°30.483 2°35.033 15.1 11.3 1 37.4
2008-02-07 10:13:45 51°30.679 2°35.037 15.1 12 2 37.3
2008-02-07 10:14:45 51°30.872 2°35.038 15.1 11.5 3 37.4
2008-02-07 10:15:44 51°31.058 2°35.062 15.1 11.9 2 37.1
2008-02-07 10:16:45 51°31.256 2°35.053 15.1 11.4 359 37.5
2008-02-07 10:17:45 51°31.452 2°35.063 15.1 11.8 -999 37.8
2008-02-07 10:18:45 51°31.647 2°35.073 15.1 11.3 1 36.4
2008-02-07 10:19:45 51°31.84 2°35.065 15.1 11.6 -999 35.2
2008-02-07 10:20:45 51°32.031 2°35.076 15.1 11.6 6 32.7
2008-02-07 10:21:45 51°32.227 2°35.099 15.1 12.2 5 29.6
2008-02-07 10:22:45 51°32.425 2°35.134 15.1 11.7 7 27.5
2008-02-07 10:23:45 51°32.621 2°35.174 15.1 11.7 9 24.5
2008-02-07 10:24:44 51°32.806 2°35.262 15.1 10.8 16 21.9
2008-02-07 10:25:45 51°32.973 2°35.32 15.1 9.8 9 21.9
2008-02-07 10:26:45 51°33.132 2°35.366 15.1 8.5 11 21.4
2008-02-07 10:27:45 51°33.236 2°35.384 15.1 4.4 1 21.1
2008-02-07 10:28:45 51°33.287 2°35.38 15.1 2.3 351 20.7
2008-02-07 10:29:45 51°33.304 2°35.371 15.1 0.5 322 19.3
2008-02-07 10:30:45 51°33.309 2°35.364 15.1 0.4 330 19.4
2008-02-07 10:31:45 51°33.311 2°35.36 15.1 0.1 320 19.3
2008-02-07 10:32:45 51°33.314 2°35.362 15.1 0.2 10 19.4
2008-02-07 10:33:45 51°33.315 2°35.366 15.1 0.3 158 19.1
2008-02-07 10:34:45 51°33.317 2°35.373 15.1 0.4 63 20.6
2008-02-07 10:35:45 51°33.323 2°35.366 15.1 2.9 296 19.9
2008-02-07 10:36:46 51°33.383 2°35.268 15.1 6.2 347 16.7
2008-02-07 10:37:45 51°33.495 2°35.337 15.1 9.7 26 19.7
2008-02-07 10:38:45 51°33.671 2°35.463 15.1 12.3 20 26.4
2008-02-07 10:39:45 51°33.848 2°35.605 15.1 12 27 25.2
2008-02-07 10:40:45 51°34.033 2°35.722 15.1 11.9 21 25.4
2008-02-07 10:41:45 51°34.212 2°35.871 15.1 12.1 22 29.9
2008-02-07 10:42:45 51°34.396 2°35.996 15.1 11.9 24 31.2
2008-02-07 10:43:45 51°34.58 2°36.136 15.1 11.9 24 31.3
2008-02-07 10:44:45 51°34.757 2°36.293 15.1 11.9 25 33.4
2008-02-07 10:45:45 51°34.936 2°36.447 15.1 12.2 27 36
2008-02-07 10:46:45 51°35.115 2°36.589 15.1 12.1 27 35.7
2008-02-07 10:47:45 51°35.306 2°36.686 15.1 11.8 16 35.8
2008-02-07 10:48:45 51°35.497 2°36.774 15.1 12.1 18 37.1
2008-02-07 10:49:45 51°35.69 2°36.864 15.1 11.8 8 36.6
2008-02-07 10:50:44 51°35.885 2°36.91 15.1 11.9 7 36.9
2008-02-07 10:51:45 51°36.082 2°37.009 15.1 11.8 23 37
2008-02-07 10:52:45 51°36.272 2°37.112 15.1 12 13 38.2
2008-02-07 10:53:45 51°36.468 2°37.166 15.1 11.9 6 38.4
2008-02-07 10:54:45 51°36.666 2°37.237 15.1 12.1 14 38.4
2008-02-07 10:55:45 51°36.858 2°37.344 15.1 11.9 19 38.2
2008-02-07 10:56:45 51°37.05 2°37.46 15.1 12 21 38
2008-02-07 10:57:45 51°37.244 2°37.567 15.1 12 18 39
2008-02-07 10:58:44 51°37.437 2°37.638 15.1 12.2 14 37.7
2008-02-07 10:59:45 51°37.635 2°37.749 15.1 12.3 23 39.1
2008-02-07 11:00:45 51°37.775 2°37.988 15.1 12.3 57 39.7
2008-02-07 11:01:45 51°37.885 2°38.272 15.1 12.9 57 40
2008-02-07 11:02:45 51°37.978 2°38.574 15.1 12.5 66 40
2008-02-07 11:03:45 51°38.118 2°38.793 15.1 12.1 15 38.1
2008-02-07 11:04:45 51°38.318 2°38.823 15.1 12.3 359 41.7
2008-02-07 11:05:45 51°38.521 2°38.79 15.1 12.2 350 42.4
2008-02-07 11:06:45 51°38.721 2°38.731 15.1 12.2 354 37.2
2008-02-07 11:07:45 51°38.907 2°38.708 15.1 9.9 358 39.3
2008-02-07 11:08:45 51°39.061 2°38.703 15.1 9 357 42.7
2008-02-07 11:09:45 51°39.2 2°38.675 15.1 7 350 41.3
2008-02-07 11:10:45 51°39.29 2°38.663 15.1 4.5 359 38.9
2008-02-07 11:11:45 51°39.36 2°38.676 15.1 4 16 42
2008-02-07 11:12:45 51°39.402 2°38.703 15.1 1.5 25 38.7
2008-02-07 11:13:45 51°39.416 2°38.717 15.1 1 29 38.8
2008-02-07 11:14:45 51°39.429 2°38.726 15.1 0.7 23 38.8
2008-02-07 11:15:45 51°39.442 2°38.734 15.1 0.9 -999 37.4
2008-02-07 11:16:45 51°39.489 2°38.671 15.1 6.9 316 38.8
2008-02-07 11:17:46 51°39.607 2°38.489 15.1 11.5 313 41.1
2008-02-07 11:18:45 51°39.739 2°38.258 15.1 12 312 50
2008-02-07 11:19:46 51°39.873 2°38.008 15.1 12.1 312 49.7
2008-02-07 11:20:45 51°40.009 2°37.776 15.1 12.1 312 42.4
2008-02-07 11:21:45 51°40.147 2°37.541 15.1 12 314 42.1
2008-02-07 11:22:46 51°40.275 2°37.287 15.1 11.9 308 41.6
2008-02-07 11:23:46 51°40.42 2°37.061 15.1 12.1 319 38
2008-02-07 11:24:46 51°40.571 2°36.844 15.1 12.4 323 36.5
2008-02-07 11:25:45 51°40.715 2°36.631 15.1 11.9 316 31.1
2008-02-07 11:26:46 51°40.875 2°36.428 15.1 11.8 321 24.9
2008-02-07 11:27:46 51°41.021 2°36.215 15.1 11.7 313 22.6
2008-02-07 11:28:46 51°41.168 2°35.999 15.1 12.1 319 27.7
2008-02-07 11:29:45 51°41.297 2°35.764 15.1 12.1 309 30.3
2008-02-07 11:30:46 51°41.442 2°35.532 15.1 12.1 313 33.9
2008-02-07 11:31:46 51°41.577 2°35.295 15.1 12.3 320 33.4
2008-02-07 11:32:45 51°41.714 2°35.067 15.1 12.1 308 38.6
2008-02-07 11:33:45 51°41.84 2°34.818 15.1 12.2 307 36.9
2008-02-07 11:34:45 51°41.974 2°34.613 15.1 9.7 318 40.1
2008-02-07 11:35:46 51°42.079 2°34.443 15.1 7.2 320 42.7
2008-02-07 11:36:45 51°42.154 2°34.367 15.1 4 323 35.4
2008-02-07 11:37:46 51°42.191 2°34.328 15.1 2 333 37.9
2008-02-07 11:38:46 51°42.205 2°34.357 15.1 1.4 74 -999
2008-02-07 11:39:49 51°42.217 2°34.396 15.1 1.5 62 38.8
2008-02-07 11:40:46 51°42.231 2°34.425 15.1 1.4 42 34.8
2008-02-07 11:41:45 51°42.251 2°34.449 15.1 2.3 355 39
2008-02-07 11:42:45 51°42.348 2°34.311 15.1 11.6 319 40.9
2008-02-07 11:43:45 51°42.488 2°34.078 15.1 12.4 316 40.2
2008-02-07 11:44:45 51°42.638 2°33.852 15.1 12.3 319 41.2
2008-02-07 11:45:45 51°42.79 2°33.63 15.1 12.6 318 42
2008-02-07 11:46:45 51°42.943 2°33.408 15.1 12.4 320 36.2
2008-02-07 11:47:45 51°43.111 2°33.212 15.1 12.4 319 39.5
2008-02-07 11:48:45 51°43.276 2°33.011 15.1 12.8 331 41.7
2008-02-07 11:49:45 51°43.455 2°32.834 15.1 12.6 326 38.8
2008-02-07 11:50:45 51°43.618 2°32.629 15.1 12.8 323 39.1
2008-02-07 11:51:45 51°43.79 2°32.438 15.1 12.3 318 40.6
2008-02-07 11:52:45 51°43.949 2°32.225 15.1 12.5 328 43.1
2008-02-07 11:53:45 51°44.133 2°32.059 15.1 12.5 329 38.8
2008-02-07 11:54:45 51°44.305 2°31.869 15.1 12.7 329 39.4
2008-02-07 11:55:45 51°44.477 2°31.681 15.1 12.6 326 41.2
2008-02-07 11:56:45 51°44.654 2°31.497 15.1 12.7 327 41.2
2008-02-07 11:57:45 51°44.836 2°31.324 15.1 12.9 333 37.8
2008-02-07 11:58:45 51°45.024 2°31.165 15.1 12.7 327 39.3
2008-02-07 11:59:45 51°45.198 2°30.976 15.1 12.8 328 42.2
2008-02-07 12:00:45 51°45.389 2°30.826 15.1 12.8 342 37.4
2008-02-07 12:01:45 51°45.588 2°30.694 15.1 13 339 40.6
2008-02-07 12:02:45 51°45.778 2°30.54 15.1 12.7 329 42.1
2008-02-07 12:03:45 51°45.967 2°30.401 15.1 11.5 342 40
2008-02-07 12:04:45 51°46.133 2°30.288 15.1 10.5 330 41.5
2008-02-07 12:05:45 51°46.284 2°30.151 15.1 10.5 332 41.8
2008-02-07 12:06:45 51°46.434 2°30.019 15.1 8.7 329 41.6
2008-02-07 12:07:45 51°46.515 2°29.962 15.1 2.3 351 40.8
2008-02-07 12:08:48 51°46.536 2°30 15.1 1.9 61 -999
2008-02-07 12:09:48 51°46.555 2°30.042 15.1 1.9 48 40.7
2008-02-07 12:10:45 51°46.576 2°30.076 15.1 1.9 38 42.2
2008-02-07 12:11:45 51°46.601 2°30.109 15.1 2 35 40.3
2008-02-07 12:12:45 51°46.626 2°30.138 15.1 1.8 33 41
2008-02-07 12:13:45 51°46.656 2°30.15 15.1 3 338 41.2
2008-02-07 12:14:45 51°46.728 2°30.153 15.1 5.5 30 41.3
2008-02-07 12:15:45 51°46.762 2°30.293 15.1 7 93 41.7
2008-02-07 12:16:45 51°46.716 2°30.558 15.1 12.4 109 43.4
2008-02-07 12:17:45 51°46.637 2°30.881 15.1 13 112 42.1
2008-02-07 12:18:45 51°46.551 2°31.201 15.1 12.9 119 42
2008-02-07 12:19:45 51°46.449 2°31.504 15.1 12.9 116 41.9
2008-02-07 12:20:45 51°46.349 2°31.811 15.1 12.7 122 40.6
2008-02-07 12:21:45 51°46.228 2°32.09 15.1 12.7 124 42.3
2008-02-07 12:22:45 51°46.121 2°32.385 15.1 12.8 124 41.7
2008-02-07 12:23:45 51°46.012 2°32.68 15.1 12.7 120 40.5
2008-02-07 12:24:45 51°45.909 2°32.982 15.1 13 118 43.6
2008-02-07 12:25:45 51°45.799 2°33.274 15.1 12.7 124 44
2008-02-07 12:26:45 51°45.698 2°33.578 15.1 13 113 39.1
2008-02-07 12:27:45 51°45.6 2°33.884 15.1 12.5 124 39.9
2008-02-07 12:28:45 51°45.488 2°34.174 15.1 12.7 121 39.4
2008-02-07 12:29:45 51°45.373 2°34.457 15.1 12.6 124 40.8
2008-02-07 12:30:45 51°45.251 2°34.734 15.1 12.8 123 38.7
2008-02-07 12:31:45 51°45.13 2°35.012 15.1 12.9 125 42.8
2008-02-07 12:32:45 51°45.011 2°35.294 15.1 12.8 123 40.7
2008-02-07 12:33:45 51°44.901 2°35.592 15.1 12.9 122 39.2
2008-02-07 12:34:45 51°44.784 2°35.88 15.1 13 119 36.8
2008-02-07 12:35:45 51°44.671 2°36.167 15.1 12.6 126 38.8
2008-02-07 12:36:45 51°44.565 2°36.471 15.1 13.1 118 35
2008-02-07 12:37:45 51°44.45 2°36.761 15.1 12.9 117 38.1
2008-02-07 12:38:45 51°44.345 2°37.063 15.1 12.8 123 35.2
2008-02-07 12:39:45 51°44.225 2°37.345 15.1 12.7 126 38.2
2008-02-07 12:40:45 51°44.104 2°37.627 15.1 13 118 34
2008-02-07 12:41:45 51°44.012 2°37.943 15.1 13.2 114 36.5
2008-02-07 12:42:45 51°43.918 2°38.257 15.1 12.6 120 36.7
2008-02-07 12:43:45 51°43.811 2°38.557 15.1 13 117 35.1
2008-02-07 12:44:45 51°43.709 2°38.862 15.1 13 117 38.8
2008-02-07 12:45:45 51°43.605 2°39.167 15.1 12.9 121 37.3
2008-02-07 12:46:45 51°43.491 2°39.454 15.1 12.7 121 42
2008-02-07 12:47:45 51°43.385 2°39.752 15.1 12.8 119 40.9
2008-02-07 12:48:45 51°43.279 2°40.05 15.1 12.8 119 41.1
2008-02-07 12:49:45 51°43.178 2°40.354 15.1 12.5 123 43.2
2008-02-07 12:50:45 51°43.055 2°40.629 15.1 12.5 126 42.8
2008-02-07 12:51:45 51°42.942 2°40.921 15.1 13.1 116 38.7
2008-02-07 12:52:45 51°42.84 2°41.227 15.1 13 119 43.2
2008-02-07 12:53:45 51°42.724 2°41.519 15.1 12.9 119 42.9
2008-02-07 12:54:45 51°42.627 2°41.83 15.1 13.2 119 39.5
2008-02-07 12:55:45 51°42.517 2°42.127 15.1 13.1 119 37.3
2008-02-07 12:56:45 51°42.405 2°42.42 15.1 13 119 38
2008-02-07 12:57:45 51°42.293 2°42.715 15.1 13 122 38.8
2008-02-07 12:58:45 51°42.184 2°43.015 15.1 13.2 121 36.4
2008-02-07 12:59:45 51°42.075 2°43.313 15.1 13.1 118 37.6
2008-02-07 13:00:45 51°41.964 2°43.607 15.1 12.7 121 35.5
2008-02-07 13:01:45 51°41.841 2°43.888 15.1 12.8 125 36.1
2008-02-07 13:02:45 51°41.727 2°44.179 15.1 12.8 121 34.4
2008-02-07 13:03:45 51°41.613 2°44.469 15.1 12.9 120 38.6
2008-02-07 13:04:45 51°41.508 2°44.773 15.1 12.9 120 39.6
2008-02-07 13:05:45 51°41.395 2°45.063 15.1 12.8 126 37
2008-02-07 13:06:45 51°41.294 2°45.367 15.1 13.3 111 36.3
2008-02-07 13:07:45 51°41.194 2°45.672 15.1 12.8 121 33.3
2008-02-07 13:08:45 51°41.097 2°45.985 15.1 13.3 113 33.7
2008-02-07 13:09:45 51°41 2°46.297 15.1 12.7 122 39.4
2008-02-07 13:10:45 51°40.896 2°46.602 15.1 12.8 117 39.7
2008-02-07 13:11:45 51°40.793 2°46.903 15.1 12.8 117 34.9
2008-02-07 13:12:45 51°40.738 2°47.249 15.1 13.7 102 36
2008-02-07 13:13:45 51°40.638 2°47.555 15.1 12.9 122 33.6
2008-02-07 13:14:45 51°40.53 2°47.859 15.1 13.1 118 27.8
2008-02-07 13:15:45 51°40.425 2°48.165 15.1 12.7 119 22.7
2008-02-07 13:16:45 51°40.366 2°48.362 15.1 6.1 99 24.8
2008-02-07 13:17:45 51°40.387 2°48.503 15.1 5.6 55 24.1
2008-02-07 13:18:45 51°40.46 2°48.579 15.1 4.6 11 21
2008-02-07 13:19:45 51°40.519 2°48.554 15.1 3.8 330 20.8
2008-02-07 13:20:45 51°40.547 2°48.495 15.1 2.4 286 24.4
2008-02-07 13:21:45 51°40.571 2°48.441 15.1 2 325 25.7
2008-02-07 13:22:45 51°40.597 2°48.439 15.1 2.2 38 24.8
2008-02-07 13:23:46 51°40.627 2°48.494 15.1 3.1 49 -999
2008-02-07 13:24:45 51°40.653 2°48.547 15.1 2.5 51 25.5
2008-02-07 13:25:45 51°40.681 2°48.6 15.1 2.7 50 23.5
2008-02-07 13:26:45 51°40.709 2°48.651 15.1 2.6 48 25.1
2008-02-07 13:27:45 51°40.737 2°48.7 15.1 2.6 45 24.7
2008-02-07 13:28:45 51°40.767 2°48.745 15.1 2.6 45 25.2
2008-02-07 13:29:45 51°40.798 2°48.792 15.1 2.4 43 23.8
2008-02-07 13:30:45 51°40.827 2°48.836 15.1 2.3 42 26.4
2008-02-07 13:31:45 51°40.86 2°48.85 15.1 2 352 24.9
2008-02-07 13:32:45 51°40.86 2°48.825 15.1 3.4 208 26.2
2008-02-07 13:33:46 51°40.755 2°48.74 15.1 8.4 211 25.5
2008-02-07 13:34:46 51°40.621 2°48.589 15.1 10.4 216 22.3
2008-02-07 13:35:46 51°40.467 2°48.447 15.1 10.4 209 24.6
2008-02-07 13:36:46 51°40.322 2°48.286 15.1 10.8 214 25.1
2008-02-07 13:37:46 51°40.179 2°48.116 15.1 10.6 216 25.4
2008-02-07 13:38:46 51°40.043 2°47.937 15.1 10.3 218 18
2008-02-07 13:39:46 51°39.918 2°47.75 15.1 10.3 222 22.8
2008-02-07 13:40:46 51°39.786 2°47.564 15.1 10.4 224 21.8
2008-02-07 13:41:46 51°39.642 2°47.409 15.1 10.5 215 23.9
2008-02-07 13:42:46 51°39.504 2°47.236 15.1 10.5 221 26.3
2008-02-07 13:43:46 51°39.366 2°47.063 15.1 10.5 225 28.5
2008-02-07 13:44:46 51°39.242 2°46.863 15.1 10.5 223 30.3
2008-02-07 13:45:46 51°39.116 2°46.661 15.1 10.7 229 31.7
2008-02-07 13:46:46 51°38.985 2°46.467 15.1 10.6 225 33.2
2008-02-07 13:47:46 51°38.848 2°46.286 15.1 10.6 216 34.1
2008-02-07 13:48:46 51°38.726 2°46.083 15.1 10.8 231 34.6
2008-02-07 13:49:46 51°38.603 2°45.877 15.1 10.7 229 38.6
2008-02-07 13:50:46 51°38.493 2°45.658 15.1 10.5 218 37.8
2008-02-07 13:51:46 51°38.368 2°45.46 15.1 10.6 233 36.3
2008-02-07 13:52:46 51°38.255 2°45.244 15.1 10.7 224 33.1
2008-02-07 13:53:46 51°38.13 2°45.048 15.1 10.5 223 35
2008-02-07 13:54:46 51°38 2°44.859 15.1 10.7 221 36.6
2008-02-07 13:55:46 51°37.858 2°44.695 15.1 10.5 219 37.4
2008-02-07 13:56:46 51°37.755 2°44.539 15.1 5.5 245 38.9
2008-02-07 13:57:46 51°37.757 2°44.402 15.1 5.7 272 35.5
2008-02-07 13:58:46 51°37.731 2°44.242 15.1 7.4 259 33.3
2008-02-07 13:59:46 51°37.715 2°44.032 15.1 8 251 38.2
2008-02-07 14:00:46 51°37.697 2°43.814 15.1 8.3 263 32.9
2008-02-07 14:01:46 51°37.672 2°43.638 15.1 4.6 262 37.4
2008-02-07 14:02:46 51°37.673 2°43.562 15.1 2.3 283 39.1
2008-02-07 14:03:46 51°37.701 2°43.511 15.1 2.6 331 40.3
2008-02-07 14:04:46 51°37.737 2°43.512 15.1 2.2 8 35.3
2008-02-07 14:05:46 51°37.772 2°43.525 15.1 2.1 17 37.8
2008-02-07 14:06:46 51°37.806 2°43.547 15.1 2.3 27 36.3
2008-02-07 14:07:45 51°37.841 2°43.563 15.1 1.9 346 38
2008-02-07 14:08:45 51°37.857 2°43.538 15.1 1.4 326 38.1
2008-02-07 14:09:45 51°37.878 2°43.531 15.1 1.6 3 38.8
2008-02-07 14:10:45 51°37.909 2°43.539 15.1 2 12 36.7
2008-02-07 14:11:45 51°37.943 2°43.557 15.1 2.3 19 38.3
2008-02-07 14:12:45 51°37.98 2°43.58 15.1 2.4 23 37.3
2008-02-07 14:13:45 51°38.018 2°43.605 15.1 2.5 22 39
2008-02-07 14:14:45 51°38.056 2°43.633 15.1 2.6 27 38.4
2008-02-07 14:15:45 51°38.096 2°43.658 15.1 2.9 358 31.7
2008-02-07 14:16:45 51°38.115 2°43.613 15.1 2.6 252 34.7
2008-02-07 14:17:45 51°38.092 2°43.572 15.1 1.5 194 36.1
2008-02-07 14:18:45 51°38.059 2°43.545 15.1 3 208 39.7
2008-02-07 14:19:45 51°38.033 2°43.523 15.1 0.8 206 40.1
2008-02-07 14:20:45 51°38.031 2°43.52 15.1 0.3 345 40.1
2008-02-07 14:21:45 51°38.04 2°43.519 15.1 0.7 356 40.4
2008-02-07 14:22:45 51°38.055 2°43.524 15.1 1 25 40
2008-02-07 14:23:46 51°38.072 2°43.54 15.1 1.4 42 38.9
2008-02-07 14:24:46 51°38.072 2°43.566 15.1 2.3 125 38.3
2008-02-07 14:25:46 51°38.052 2°43.715 15.1 8.5 103 37.6
2008-02-07 14:26:46 51°38.01 2°43.985 15.1 11.6 107 37.6
2008-02-07 14:27:46 51°37.957 2°44.31 15.1 12.9 105 38
2008-02-07 14:28:46 51°37.886 2°44.632 15.1 12.5 116 37.8
2008-02-07 14:29:46 51°37.782 2°44.922 15.1 12.7 117 40.7
2008-02-07 14:30:46 51°37.687 2°45.221 15.1 12.8 116 33.7
2008-02-07 14:31:46 51°37.59 2°45.518 15.1 12.5 122 33.8
2008-02-07 14:32:46 51°37.497 2°45.821 15.1 12.6 119 36.4
2008-02-07 14:33:46 51°37.39 2°46.108 15.1 12.6 121 34.9
2008-02-07 14:34:46 51°37.278 2°46.393 15.1 12.6 123 30.4
2008-02-07 14:35:46 51°37.179 2°46.695 15.1 12.9 111 26.1
2008-02-07 14:36:46 51°37.074 2°46.993 15.1 12.9 118 19.7
2008-02-07 14:37:46 51°36.957 2°47.278 15.1 12.7 129 20.2
2008-02-07 14:38:46 51°36.836 2°47.556 15.1 12.7 127 35.1
2008-02-07 14:39:46 51°36.709 2°47.818 15.1 12.5 124 37.6
2008-02-07 14:40:46 51°36.595 2°48.099 15.1 12.6 120 39.4
2008-02-07 14:41:46 51°36.485 2°48.384 15.1 12.6 121 38.9
2008-02-07 14:42:46 51°36.375 2°48.663 15.1 12.5 119 39.5
2008-02-07 14:43:46 51°36.251 2°48.921 15.1 12.3 127 38.5
2008-02-07 14:44:46 51°36.128 2°49.162 15.1 10.6 131 37.4
2008-02-07 14:45:46 51°36.047 2°49.375 15.1 7.4 111 35.2
2008-02-07 14:46:46 51°36.078 2°49.526 15.1 5.8 39 34
2008-02-07 14:47:46 51°36.171 2°49.56 15.1 6.6 359 31.8
2008-02-07 14:48:46 51°36.262 2°49.646 15.1 6.5 65 32.6
2008-02-07 14:49:46 51°36.242 2°49.765 15.1 3.8 147 33.4
2008-02-07 14:50:46 51°36.193 2°49.733 15.1 3.4 214 31.8
2008-02-07 14:51:46 51°36.15 2°49.682 15.1 3.3 227 30.5
2008-02-07 14:52:46 51°36.118 2°49.623 15.1 1.9 204 32.1
2008-02-07 14:53:46 51°36.102 2°49.609 15.1 0.6 260 31.1
2008-02-07 14:54:46 51°36.102 2°49.612 15.1 0.6 74 30.8
2008-02-07 14:55:46 51°36.108 2°49.637 15.1 1.3 67 32.3
2008-02-07 14:56:46 51°36.12 2°49.67 15.1 1.4 68 28.4
2008-02-07 14:57:46 51°36.095 2°49.707 15.1 3.5 165 29
2008-02-07 14:58:46 51°36.08 2°49.608 15.1 7 294 29.5
2008-02-07 14:59:46 51°36.215 2°49.5 15.1 11.2 2 33.1
2008-02-07 15:00:46 51°36.361 2°49.699 15.1 12.6 68 35.1
2008-02-07 15:01:46 51°36.33 2°50.013 15.1 12 127 35.3
2008-02-07 15:02:46 51°36.175 2°50.203 15.1 12 142 33.7
2008-02-07 15:03:46 51°36.002 2°50.34 15.1 11.5 158 33.3
2008-02-07 15:04:46 51°35.823 2°50.445 15.1 11.3 160 28.5
2008-02-07 15:05:46 51°35.646 2°50.559 15.1 11.4 160 29.1
2008-02-07 15:06:46 51°35.467 2°50.662 15.1 11.7 158 27.8
2008-02-07 15:07:46 51°35.29 2°50.778 15.1 11.6 159 26.6
2008-02-07 15:08:46 51°35.107 2°50.84 15.1 11.3 174 30
2008-02-07 15:09:46 51°34.92 2°50.868 15.1 11.3 171 31.5
2008-02-07 15:10:46 51°34.733 2°50.895 15.1 11.1 180 33.5
2008-02-07 15:11:46 51°34.545 2°50.92 15.1 11.6 173 36
2008-02-07 15:12:46 51°34.356 2°50.928 15.1 11.3 179 37.5
2008-02-07 15:13:46 51°34.168 2°50.946 15.1 11.4 183 39.3
2008-02-07 15:14:46 51°33.977 2°50.954 15.1 11.4 182 38
2008-02-07 15:15:46 51°33.787 2°50.962 15.1 11.6 176 35.9
2008-02-07 15:16:46 51°33.598 2°51.013 15.1 11.7 163 34.9
2008-02-07 15:17:46 51°33.415 2°51.105 15.1 11.5 170 33.1
2008-02-07 15:18:46 51°33.237 2°51.221 15.1 11.7 162 34.6
2008-02-07 15:19:46 51°33.047 2°51.243 15.1 11.3 182 33
2008-02-07 15:20:46 51°32.856 2°51.284 15.1 11.7 170 32.8
2008-02-07 15:21:46 51°32.667 2°51.285 15.1 11.3 186 29.4
2008-02-07 15:22:46 51°32.487 2°51.207 15.1 11.1 197 32.4
2008-02-07 15:23:46 51°32.3 2°51.213 15.1 11.7 170 32.9
2008-02-07 15:24:46 51°32.113 2°51.29 15.1 11.6 164 30.9
2008-02-07 15:25:46 51°31.925 2°51.295 15.1 11.2 192 30.3
2008-02-07 15:26:46 51°31.74 2°51.256 15.1 11.3 180 29.8
2008-02-07 15:27:46 51°31.551 2°51.248 15.1 11.3 184 26.4
2008-02-07 15:28:46 51°31.361 2°51.276 15.1 11.4 173 25.1
2008-02-07 15:29:46 51°31.172 2°51.319 15.1 11.6 174 26.7
2008-02-07 15:30:46 51°30.984 2°51.324 15.1 11 183 20.9
2008-02-07 15:31:46 51°30.797 2°51.288 15.1 11.2 185 22.9
2008-02-07 15:32:46 51°30.612 2°51.343 15.1 11.6 165 22.2
2008-02-07 15:33:46 51°30.426 2°51.344 15.1 11.3 185 21
2008-02-07 15:34:46 51°30.238 2°51.329 15.1 11.4 175 25.5
2008-02-07 15:35:46 51°30.049 2°51.387 15.1 11.6 173 29.7
2008-02-07 15:36:46 51°29.858 2°51.377 15.1 11.4 191 30.5
2008-02-07 15:37:46 51°29.673 2°51.31 15.1 11.5 182 31.2
2008-02-07 15:38:46 51°29.483 2°51.37 15.1 11.6 165 30.1
2008-02-07 15:39:46 51°29.29 2°51.41 15.1 11.7 183 29.4
2008-02-07 15:40:46 51°29.099 2°51.389 15.1 11.9 175 30.5
2008-02-07 15:41:46 51°28.908 2°51.46 15.1 11.7 162 30.1
2008-02-07 15:42:46 51°28.717 2°51.518 15.1 11.7 178 29
2008-02-07 15:43:46 51°28.528 2°51.478 15.1 11.4 186 29.1
2008-02-07 15:44:46 51°28.337 2°51.502 15.1 11.9 170 27.9
2008-02-07 15:45:46 51°28.151 2°51.594 15.1 11.7 158 26.5
2008-02-07 15:46:46 51°27.96 2°51.628 15.1 11.6 185 24.5
2008-02-07 15:47:46 51°27.774 2°51.555 15.1 11.4 195 22.7
2008-02-07 15:48:46 51°27.584 2°51.55 15.1 11.8 176 22.1
2008-02-07 15:49:46 51°27.395 2°51.515 15.1 11.4 198 20.7
2008-02-07 15:50:46 51°27.217 2°51.416 15.1 11.4 191 22.1
2008-02-07 15:51:46 51°27.026 2°51.41 15.1 11.7 170 22.5
2008-02-07 15:52:46 51°26.835 2°51.47 15.1 11.5 172 22.6
2008-02-07 15:53:46 51°26.639 2°51.489 15.1 11.7 180 25.1
2008-02-07 15:54:46 51°26.444 2°51.491 15.1 11.9 172 26.9
2008-02-07 15:55:46 51°26.255 2°51.586 15.1 12 159 26.4
2008-02-07 15:56:46 51°26.061 2°51.621 15.1 11.7 184 30.6
2008-02-07 15:57:46 51°25.866 2°51.625 15.1 11.9 171 28.3
2008-02-07 15:58:46 51°25.675 2°51.71 15.1 11.8 165 26.7
2008-02-07 15:59:46 51°25.48 2°51.744 15.1 11.8 179 25
2008-02-07 16:00:46 51°25.288 2°51.809 15.1 11.8 164 23.6
2008-02-07 16:01:46 51°25.097 2°51.886 15.1 11.8 170 23.2
2008-02-07 16:02:46 51°24.903 2°51.894 15.1 11.7 182 22.6
2008-02-07 16:03:46 51°24.708 2°51.87 15.1 11.7 185 22.3
2008-02-07 16:04:46 51°24.512 2°51.858 15.1 11.9 177 21.5
2008-02-07 16:05:45 51°24.321 2°51.909 15.1 11.9 170 19.8
2008-02-07 16:06:46 51°24.123 2°51.893 15.1 11.7 193 18.6
2008-02-07 16:07:46 51°23.932 2°51.853 15.1 11.7 176 18.1
2008-02-07 16:08:46 51°23.743 2°51.927 15.1 11.7 157 17
2008-02-07 16:09:46 51°23.563 2°52.047 15.1 11.6 169 15.7
2008-02-07 16:10:46 51°23.417 2°52.212 15.1 12.1 120 18.7
2008-02-07 16:11:46 51°23.346 2°52.522 15.1 12.5 108 21.3
2008-02-07 16:12:45 51°23.276 2°52.83 15.1 12.4 116 21.2
2008-02-07 16:13:46 51°23.189 2°53.139 15.1 12.3 118 21.2
2008-02-07 16:14:46 51°23.079 2°53.415 15.1 12 137 19.6
2008-02-07 16:15:46 51°22.904 2°53.559 15.1 11.8 163 21.8
2008-02-07 16:16:46 51°22.716 2°53.655 15.1 11.9 158 22.3
2008-02-07 16:17:46 51°22.521 2°53.711 15.1 12.1 178 23.6
2008-02-07 16:18:46 51°22.32 2°53.727 15.1 12.1 184 21.7
2008-02-07 16:19:46 51°22.122 2°53.676 15.1 12.2 184 19.9
2008-02-07 16:20:46 51°21.921 2°53.665 15.1 12.3 188 19
2008-02-07 16:21:46 51°21.727 2°53.625 15.1 11.3 181 17.7
2008-02-07 16:22:46 51°21.533 2°53.616 15.1 11.6 191 16.6
2008-02-07 16:23:46 51°21.348 2°53.504 15.1 11.6 203 16.7
2008-02-07 16:24:46 51°21.155 2°53.48 15.1 11.9 167 16.5
2008-02-07 16:25:46 51°20.96 2°53.527 15.1 12.1 181 16.6
2008-02-07 16:26:46 51°20.764 2°53.486 15.1 12 181 16.6
2008-02-07 16:27:46 51°20.565 2°53.491 15.1 12 186 16.5
2008-02-07 16:28:46 51°20.37 2°53.407 15.1 12.2 197 16.3
2008-02-07 16:29:46 51°20.171 2°53.376 15.1 12.3 182 16
2008-02-07 16:30:46 51°19.974 2°53.306 15.1 12.2 201 15.6
2008-02-07 16:31:46 51°19.778 2°53.229 15.1 12.1 190 14.9
2008-02-07 16:32:46 51°19.586 2°53.128 15.1 12 202 14.3
2008-02-07 16:33:46 51°19.389 2°53.098 15.1 12.1 176 13.5
2008-02-07 16:34:46 51°19.191 2°53.051 15.1 12 192 12.7
2008-02-07 16:35:46 51°18.992 2°53.066 15.1 12.1 173 12
2008-02-07 16:36:46 51°18.794 2°53.033 15.1 12.5 196 11.5
2008-02-07 16:37:46 51°18.615 2°52.949 15.1 10.5 197 11.4
2008-02-07 16:38:46 51°18.46 2°52.877 15.1 9.5 197 11.2
2008-02-07 16:39:46 51°18.31 2°52.803 15.1 9.2 197 11
2008-02-07 16:40:46 51°18.159 2°52.738 15.1 9.5 195 10.6
2008-02-07 16:41:46 51°17.988 2°52.679 15.1 11.4 192 10.4
2008-02-07 16:42:46 51°17.799 2°52.629 15.1 11.7 189 10
2008-02-07 16:43:46 51°17.605 2°52.605 15.1 11.8 182 10
2008-02-07 16:44:46 51°17.411 2°52.591 15.1 11.6 183 9.8
2008-02-07 16:45:46 51°17.217 2°52.596 15.1 11.5 177 9.7
2008-02-07 16:46:46 51°17.028 2°52.653 15.1 11.6 167 9.7
2008-02-07 16:47:46 51°16.84 2°52.733 15.1 12.1 165 9.2
2008-02-07 16:48:46 51°16.652 2°52.839 15.1 12.1 161 11
2008-02-07 16:49:46 51°16.456 2°52.931 15.1 12.1 163 11.6
2008-02-07 16:50:46 51°16.263 2°53.035 15.1 12.2 161 11.4
2008-02-07 16:51:46 51°16.076 2°53.161 15.1 12.5 154 11.3
2008-02-07 16:52:46 51°15.889 2°53.285 15.1 12.3 157 11
2008-02-07 16:53:46 51°15.704 2°53.416 15.1 12.1 155 10.6
2008-02-07 16:54:46 51°15.52 2°53.552 15.1 12.2 156 10
2008-02-07 16:55:46 51°15.334 2°53.682 15.1 12.3 153 9.4
2008-02-07 16:56:46 51°15.155 2°53.833 15.1 12.2 150 9
2008-02-07 16:57:46 51°14.991 2°54.014 15.1 10.8 142 8.9
2008-02-07 16:58:46 51°14.917 2°54.15 15.1 4.4 112 8.8
2008-02-07 16:59:46 51°14.916 2°54.232 15.1 2.5 80 8.8
2008-02-07 17:00:46 51°14.927 2°54.283 15.1 1.8 62 8.7
2008-02-07 17:01:46 51°14.937 2°54.318 15.1 1.3 55 8.6
2008-02-07 17:02:46 51°14.943 2°54.341 15.1 0.8 71 8.5
2008-02-07 17:03:46 51°14.948 2°54.357 15.1 0.6 43 8.5
2008-02-07 17:04:46 51°14.952 2°54.365 15.1 0.4 41 8.6
2008-02-07 17:05:46 51°14.955 2°54.37 15.1 0.1 81 8.4
2008-02-07 17:06:46 51°14.958 2°54.371 15.1 0.2 359 8.4
2008-02-07 17:07:46 51°14.96 2°54.369 15.1 0.1 266 8.4
2008-02-07 17:08:46 51°14.961 2°54.368 15.1 0.1 252 8.4
2008-02-07 17:09:46 51°14.962 2°54.365 15.1 0.1 270 8.4
2008-02-07 17:10:46 51°14.963 2°54.361 15.1 0.2 241 8.3
2008-02-07 17:11:46 51°14.964 2°54.357 15.1 0.2 314 8.3
2008-02-07 17:12:46 51°14.964 2°54.352 15.1 0.2 323 8.3
2008-02-07 17:13:46 51°14.964 2°54.35 15.1 0.1 122 8.4
2008-02-07 17:14:46 51°14.949 2°54.377 15.1 2.2 139 8.3
2008-02-07 17:15:46 51°14.912 2°54.426 15.1 3.6 139 8.9
2008-02-07 17:16:46 51°14.851 2°54.499 15.1 5.2 142 9.3
2008-02-07 17:17:46 51°14.739 2°54.61 15.1 9.9 149 9.2
2008-02-07 17:18:46 51°14.583 2°54.758 15.1 11.6 147 8.9
2008-02-07 17:19:46 51°14.434 2°54.954 15.1 11.7 133 9.8
2008-02-07 17:20:46 51°14.303 2°55.187 15.1 11.9 131 9.9
2008-02-07 17:21:46 51°14.171 2°55.368 15.1 9.3 151 8.9
2008-02-07 17:22:50 51°14.044 2°55.469 15.1 6.7 154 -999
2008-02-07 17:23:49 51°13.956 2°55.534 15.1 5.8 156 -999
2008-02-07 17:24:50 51°13.868 2°55.598 15.1 5.7 154 -999
2008-02-07 17:25:49 51°13.79 2°55.666 15.1 4.9 145 -999
2008-02-07 17:26:50 51°13.729 2°55.752 15.1 4.8 133 -999
2008-02-07 17:27:50 51°13.684 2°55.843 15.1 3.8 122 -999
2008-02-07 17:28:50 51°13.669 2°55.924 15.1 2.3 99 -999
2008-02-07 17:29:50 51°13.664 2°55.953 15.1 0.4 113 -999